sensor_id;sensor_type;location;lat;lon;timestamp;P1;durP1;ratioP1;P2;durP2;ratioP2
46399;SDS011;32104;50.838;4.388;2022-07-17T00:01:15;2.47;;;0.40;;
46399;SDS011;32104;50.838;4.388;2022-07-17T00:03:40;0.68;;;0.38;;
46399;SDS011;32104;50.838;4.388;2022-07-17T00:06:06;3.60;;;1.27;;
46399;SDS011;32104;50.838;4.388;2022-07-17T00:08:32;2.22;;;0.40;;
46399;SDS011;32104;50.838;4.388;2022-07-17T00:11:01;3.40;;;0.50;;
46399;SDS011;32104;50.838;4.388;2022-07-17T00:13:27;11.38;;;4.05;;
46399;SDS011;32104;50.838;4.388;2022-07-17T00:15:52;17.02;;;6.93;;
46399;SDS011;32104;50.838;4.388;2022-07-17T00:18:18;14.38;;;7.25;;
46399;SDS011;32104;50.838;4.388;2022-07-17T00:20:44;14.98;;;4.47;;
46399;SDS011;32104;50.838;4.388;2022-07-17T00:23:10;6.32;;;2.35;;
46399;SDS011;32104;50.838;4.388;2022-07-17T00:25:35;4.47;;;1.15;;
46399;SDS011;32104;50.838;4.388;2022-07-17T00:28:05;13.77;;;1.35;;
46399;SDS011;32104;50.838;4.388;2022-07-17T00:30:35;4.43;;;0.80;;
46399;SDS011;32104;50.838;4.388;2022-07-17T00:33:03;7.63;;;0.80;;
46399;SDS011;32104;50.838;4.388;2022-07-17T00:35:32;1.00;;;0.43;;
46399;SDS011;32104;50.838;4.388;2022-07-17T00:37:58;3.72;;;0.60;;
46399;SDS011;32104;50.838;4.388;2022-07-17T00:40:23;3.05;;;0.63;;
46399;SDS011;32104;50.838;4.388;2022-07-17T00:42:51;1.85;;;0.50;;
46399;SDS011;32104;50.838;4.388;2022-07-17T00:45:17;3.40;;;0.80;;
46399;SDS011;32104;50.838;4.388;2022-07-17T00:50:22;0.82;;;0.30;;
46399;SDS011;32104;50.838;4.388;2022-07-17T00:52:50;1.95;;;0.63;;
46399;SDS011;32104;50.838;4.388;2022-07-17T00:55:16;14.98;;;0.73;;
46399;SDS011;32104;50.838;4.388;2022-07-17T00:57:47;1.73;;;0.40;;
46399;SDS011;32104;50.838;4.388;2022-07-17T01:00:15;6.43;;;0.43;;
46399;SDS011;32104;50.838;4.388;2022-07-17T01:02:45;5.18;;;0.50;;
46399;SDS011;32104;50.838;4.388;2022-07-17T01:05:13;2.17;;;0.40;;
46399;SDS011;32104;50.838;4.388;2022-07-17T01:07:40;3.63;;;0.55;;
46399;SDS011;32104;50.838;4.388;2022-07-17T01:12:35;2.47;;;0.43;;
46399;SDS011;32104;50.838;4.388;2022-07-17T01:15:01;3.42;;;0.50;;
46399;SDS011;32104;50.838;4.388;2022-07-17T01:17:28;7.20;;;0.50;;
46399;SDS011;32104;50.838;4.388;2022-07-17T01:19:57;2.88;;;0.55;;
46399;SDS011;32104;50.838;4.388;2022-07-17T01:22:23;3.50;;;0.43;;
46399;SDS011;32104;50.838;4.388;2022-07-17T01:24:50;3.03;;;0.47;;
46399;SDS011;32104;50.838;4.388;2022-07-17T01:27:16;3.65;;;0.52;;
46399;SDS011;32104;50.838;4.388;2022-07-17T01:29:43;2.53;;;1.27;;
46399;SDS011;32104;50.838;4.388;2022-07-17T01:32:09;2.70;;;0.50;;
46399;SDS011;32104;50.838;4.388;2022-07-17T01:34:36;1.20;;;0.60;;
46399;SDS011;32104;50.838;4.388;2022-07-17T01:37:01;1.67;;;0.50;;
46399;SDS011;32104;50.838;4.388;2022-07-17T01:39:27;5.00;;;0.95;;
46399;SDS011;32104;50.838;4.388;2022-07-17T01:42:11;3.63;;;0.70;;
46399;SDS011;32104;50.838;4.388;2022-07-17T01:44:37;5.68;;;0.60;;
46399;SDS011;32104;50.838;4.388;2022-07-17T01:47:03;3.15;;;0.63;;
46399;SDS011;32104;50.838;4.388;2022-07-17T01:49:31;2.15;;;0.40;;
46399;SDS011;32104;50.838;4.388;2022-07-17T01:52:00;4.10;;;0.57;;
46399;SDS011;32104;50.838;4.388;2022-07-17T01:54:28;3.40;;;0.40;;
46399;SDS011;32104;50.838;4.388;2022-07-17T01:59:45;2.40;;;0.60;;
46399;SDS011;32104;50.838;4.388;2022-07-17T02:02:14;3.97;;;0.98;;
46399;SDS011;32104;50.838;4.388;2022-07-17T02:04:43;1.45;;;0.50;;
46399;SDS011;32104;50.838;4.388;2022-07-17T02:07:10;2.47;;;0.60;;
46399;SDS011;32104;50.838;4.388;2022-07-17T02:09:36;2.65;;;0.60;;
46399;SDS011;32104;50.838;4.388;2022-07-17T02:12:02;1.40;;;0.40;;
46399;SDS011;32104;50.838;4.388;2022-07-17T02:14:28;5.07;;;0.50;;
46399;SDS011;32104;50.838;4.388;2022-07-17T02:16:55;7.28;;;0.50;;
46399;SDS011;32104;50.838;4.388;2022-07-17T02:19:21;3.22;;;0.57;;
46399;SDS011;32104;50.838;4.388;2022-07-17T02:21:46;2.65;;;0.50;;
46399;SDS011;32104;50.838;4.388;2022-07-17T02:24:12;4.47;;;0.57;;
46399;SDS011;32104;50.838;4.388;2022-07-17T02:26:38;1.63;;;0.30;;
46399;SDS011;32104;50.838;4.388;2022-07-17T02:29:04;0.88;;;0.50;;
46399;SDS011;32104;50.838;4.388;2022-07-17T02:31:30;1.35;;;0.68;;
46399;SDS011;32104;50.838;4.388;2022-07-17T02:33:55;7.05;;;0.60;;
46399;SDS011;32104;50.838;4.388;2022-07-17T02:36:21;4.18;;;0.50;;
46399;SDS011;32104;50.838;4.388;2022-07-17T02:38:47;2.38;;;0.65;;
46399;SDS011;32104;50.838;4.388;2022-07-17T02:43:57;2.78;;;0.50;;
46399;SDS011;32104;50.838;4.388;2022-07-17T02:46:26;6.05;;;0.60;;
46399;SDS011;32104;50.838;4.388;2022-07-17T02:48:55;2.55;;;0.50;;
46399;SDS011;32104;50.838;4.388;2022-07-17T02:51:28;2.00;;;0.40;;
46399;SDS011;32104;50.838;4.388;2022-07-17T02:53:53;1.42;;;0.40;;
46399;SDS011;32104;50.838;4.388;2022-07-17T02:56:19;3.13;;;0.60;;
46399;SDS011;32104;50.838;4.388;2022-07-17T02:58:45;5.53;;;0.70;;
46399;SDS011;32104;50.838;4.388;2022-07-17T03:01:10;3.58;;;0.50;;
46399;SDS011;32104;50.838;4.388;2022-07-17T03:03:42;3.70;;;0.80;;
46399;SDS011;32104;50.838;4.388;2022-07-17T03:06:09;8.30;;;0.65;;
46399;SDS011;32104;50.838;4.388;2022-07-17T03:08:34;3.08;;;1.77;;
46399;SDS011;32104;50.838;4.388;2022-07-17T03:11:01;2.47;;;0.50;;
46399;SDS011;32104;50.838;4.388;2022-07-17T03:13:27;2.17;;;0.50;;
46399;SDS011;32104;50.838;4.388;2022-07-17T03:15:53;6.60;;;0.60;;
46399;SDS011;32104;50.838;4.388;2022-07-17T03:18:19;1.00;;;0.43;;
46399;SDS011;32104;50.838;4.388;2022-07-17T03:20:44;0.80;;;0.40;;
46399;SDS011;32104;50.838;4.388;2022-07-17T03:23:13;4.18;;;0.68;;
46399;SDS011;32104;50.838;4.388;2022-07-17T03:25:41;2.30;;;0.50;;
46399;SDS011;32104;50.838;4.388;2022-07-17T03:28:07;2.58;;;0.75;;
46399;SDS011;32104;50.838;4.388;2022-07-17T03:30:33;2.38;;;0.82;;
46399;SDS011;32104;50.838;4.388;2022-07-17T03:32:58;2.38;;;0.60;;
46399;SDS011;32104;50.838;4.388;2022-07-17T03:35:24;7.22;;;0.60;;
46399;SDS011;32104;50.838;4.388;2022-07-17T03:37:50;4.65;;;0.70;;
46399;SDS011;32104;50.838;4.388;2022-07-17T03:40:15;3.15;;;0.60;;
46399;SDS011;32104;50.838;4.388;2022-07-17T03:42:44;3.58;;;0.52;;
46399;SDS011;32104;50.838;4.388;2022-07-17T03:45:10;3.20;;;0.70;;
46399;SDS011;32104;50.838;4.388;2022-07-17T03:47:36;8.88;;;0.85;;
46399;SDS011;32104;50.838;4.388;2022-07-17T03:50:02;1.45;;;0.47;;
46399;SDS011;32104;50.838;4.388;2022-07-17T03:52:28;2.50;;;0.60;;
46399;SDS011;32104;50.838;4.388;2022-07-17T03:54:54;2.03;;;0.40;;
46399;SDS011;32104;50.838;4.388;2022-07-17T03:57:19;1.90;;;0.65;;
46399;SDS011;32104;50.838;4.388;2022-07-17T03:59:46;2.70;;;0.60;;
46399;SDS011;32104;50.838;4.388;2022-07-17T04:02:11;4.82;;;0.80;;
46399;SDS011;32104;50.838;4.388;2022-07-17T04:04:41;4.68;;;0.60;;
46399;SDS011;32104;50.838;4.388;2022-07-17T04:07:06;4.70;;;0.60;;
46399;SDS011;32104;50.838;4.388;2022-07-17T04:09:52;1.90;;;0.57;;
46399;SDS011;32104;50.838;4.388;2022-07-17T04:12:22;3.50;;;0.50;;
46399;SDS011;32104;50.838;4.388;2022-07-17T04:14:57;4.30;;;0.55;;
46399;SDS011;32104;50.838;4.388;2022-07-17T04:17:26;6.90;;;0.60;;
46399;SDS011;32104;50.838;4.388;2022-07-17T04:19:55;0.88;;;0.40;;
46399;SDS011;32104;50.838;4.388;2022-07-17T04:22:26;3.03;;;0.63;;
46399;SDS011;32104;50.838;4.388;2022-07-17T04:24:55;2.17;;;0.60;;
46399;SDS011;32104;50.838;4.388;2022-07-17T04:29:46;3.15;;;0.52;;
46399;SDS011;32104;50.838;4.388;2022-07-17T04:32:12;14.20;;;0.80;;
46399;SDS011;32104;50.838;4.388;2022-07-17T04:34:38;0.90;;;0.50;;
46399;SDS011;32104;50.838;4.388;2022-07-17T04:37:03;2.58;;;0.50;;
46399;SDS011;32104;50.838;4.388;2022-07-17T04:39:29;5.43;;;0.63;;
46399;SDS011;32104;50.838;4.388;2022-07-17T04:41:56;2.15;;;0.50;;
46399;SDS011;32104;50.838;4.388;2022-07-17T04:44:34;5.00;;;0.82;;
46399;SDS011;32104;50.838;4.388;2022-07-17T04:47:01;1.98;;;0.50;;
46399;SDS011;32104;50.838;4.388;2022-07-17T04:49:27;4.05;;;0.47;;
46399;SDS011;32104;50.838;4.388;2022-07-17T04:51:53;3.67;;;0.40;;
46399;SDS011;32104;50.838;4.388;2022-07-17T04:54:20;1.65;;;0.45;;
46399;SDS011;32104;50.838;4.388;2022-07-17T04:56:46;1.13;;;0.30;;
46399;SDS011;32104;50.838;4.388;2022-07-17T04:59:11;1.73;;;0.50;;
46399;SDS011;32104;50.838;4.388;2022-07-17T05:01:40;4.88;;;0.60;;
46399;SDS011;32104;50.838;4.388;2022-07-17T05:04:06;2.53;;;0.50;;
46399;SDS011;32104;50.838;4.388;2022-07-17T05:06:33;6.10;;;0.60;;
46399;SDS011;32104;50.838;4.388;2022-07-17T05:09:02;1.65;;;0.40;;
46399;SDS011;32104;50.838;4.388;2022-07-17T05:11:28;3.28;;;0.65;;
46399;SDS011;32104;50.838;4.388;2022-07-17T05:13:55;3.83;;;0.88;;
46399;SDS011;32104;50.838;4.388;2022-07-17T05:16:21;6.07;;;0.45;;
46399;SDS011;32104;50.838;4.388;2022-07-17T05:18:46;5.50;;;0.50;;
46399;SDS011;32104;50.838;4.388;2022-07-17T05:21:13;5.03;;;0.75;;
46399;SDS011;32104;50.838;4.388;2022-07-17T05:23:39;4.07;;;0.50;;
46399;SDS011;32104;50.838;4.388;2022-07-17T05:26:05;1.83;;;0.68;;
46399;SDS011;32104;50.838;4.388;2022-07-17T05:28:32;5.68;;;0.63;;
46399;SDS011;32104;50.838;4.388;2022-07-17T05:30:58;1.77;;;0.50;;
46399;SDS011;32104;50.838;4.388;2022-07-17T05:33:24;4.40;;;0.68;;
46399;SDS011;32104;50.838;4.388;2022-07-17T05:35:50;2.20;;;0.50;;
46399;SDS011;32104;50.838;4.388;2022-07-17T05:38:15;5.35;;;0.50;;
46399;SDS011;32104;50.838;4.388;2022-07-17T05:40:42;3.15;;;0.40;;
46399;SDS011;32104;50.838;4.388;2022-07-17T05:43:08;3.72;;;0.50;;
46399;SDS011;32104;50.838;4.388;2022-07-17T05:45:33;1.00;;;0.40;;
46399;SDS011;32104;50.838;4.388;2022-07-17T05:47:59;3.67;;;1.35;;
46399;SDS011;32104;50.838;4.388;2022-07-17T05:50:25;1.13;;;0.45;;
46399;SDS011;32104;50.838;4.388;2022-07-17T05:52:51;2.25;;;0.47;;
46399;SDS011;32104;50.838;4.388;2022-07-17T05:55:19;1.42;;;0.40;;
46399;SDS011;32104;50.838;4.388;2022-07-17T05:57:45;1.33;;;0.60;;
46399;SDS011;32104;50.838;4.388;2022-07-17T06:00:10;1.58;;;0.40;;
46399;SDS011;32104;50.838;4.388;2022-07-17T06:02:39;2.17;;;0.57;;
46399;SDS011;32104;50.838;4.388;2022-07-17T06:05:08;6.57;;;0.70;;
46399;SDS011;32104;50.838;4.388;2022-07-17T06:07:34;2.08;;;0.47;;
46399;SDS011;32104;50.838;4.388;2022-07-17T06:10:02;5.55;;;0.60;;
46399;SDS011;32104;50.838;4.388;2022-07-17T06:12:29;2.83;;;0.50;;
46399;SDS011;32104;50.838;4.388;2022-07-17T06:14:54;1.67;;;0.60;;
46399;SDS011;32104;50.838;4.388;2022-07-17T06:17:20;3.65;;;0.55;;
46399;SDS011;32104;50.838;4.388;2022-07-17T06:19:46;0.90;;;0.50;;
46399;SDS011;32104;50.838;4.388;2022-07-17T06:22:12;2.45;;;0.40;;
46399;SDS011;32104;50.838;4.388;2022-07-17T06:24:37;1.05;;;0.57;;
46399;SDS011;32104;50.838;4.388;2022-07-17T06:27:03;4.78;;;0.52;;
46399;SDS011;32104;50.838;4.388;2022-07-17T06:29:29;5.70;;;2.53;;
46399;SDS011;32104;50.838;4.388;2022-07-17T06:31:55;6.22;;;1.55;;
46399;SDS011;32104;50.838;4.388;2022-07-17T06:34:20;7.85;;;2.22;;
46399;SDS011;32104;50.838;4.388;2022-07-17T06:36:46;1.75;;;0.60;;
46399;SDS011;32104;50.838;4.388;2022-07-17T06:39:12;4.78;;;0.75;;
46399;SDS011;32104;50.838;4.388;2022-07-17T06:41:37;0.88;;;0.50;;
46399;SDS011;32104;50.838;4.388;2022-07-17T06:44:03;3.28;;;0.60;;
46399;SDS011;32104;50.838;4.388;2022-07-17T06:46:29;3.05;;;0.47;;
46399;SDS011;32104;50.838;4.388;2022-07-17T06:48:55;2.25;;;0.40;;
46399;SDS011;32104;50.838;4.388;2022-07-17T06:51:20;1.27;;;0.38;;
46399;SDS011;32104;50.838;4.388;2022-07-17T06:53:46;2.95;;;0.93;;
46399;SDS011;32104;50.838;4.388;2022-07-17T06:56:13;3.70;;;0.63;;
46399;SDS011;32104;50.838;4.388;2022-07-17T06:58:39;1.38;;;0.40;;
46399;SDS011;32104;50.838;4.388;2022-07-17T07:01:04;2.55;;;0.50;;
46399;SDS011;32104;50.838;4.388;2022-07-17T07:03:31;0.63;;;0.40;;
46399;SDS011;32104;50.838;4.388;2022-07-17T07:05:57;4.20;;;0.50;;
46399;SDS011;32104;50.838;4.388;2022-07-17T07:08:23;1.58;;;0.40;;
46399;SDS011;32104;50.838;4.388;2022-07-17T07:10:49;4.95;;;0.50;;
46399;SDS011;32104;50.838;4.388;2022-07-17T07:13:15;1.55;;;0.47;;
46399;SDS011;32104;50.838;4.388;2022-07-17T07:15:41;6.07;;;0.50;;
46399;SDS011;32104;50.838;4.388;2022-07-17T07:18:07;3.47;;;0.50;;
46399;SDS011;32104;50.838;4.388;2022-07-17T07:20:34;5.57;;;0.50;;
46399;SDS011;32104;50.838;4.388;2022-07-17T07:22:59;2.33;;;0.30;;
46399;SDS011;32104;50.838;4.388;2022-07-17T07:25:25;2.35;;;0.50;;
46399;SDS011;32104;50.838;4.388;2022-07-17T07:27:51;6.22;;;0.65;;
46399;SDS011;32104;50.838;4.388;2022-07-17T07:30:17;4.38;;;0.38;;
46399;SDS011;32104;50.838;4.388;2022-07-17T07:32:43;4.80;;;0.50;;
46399;SDS011;32104;50.838;4.388;2022-07-17T07:35:08;3.25;;;0.45;;
46399;SDS011;32104;50.838;4.388;2022-07-17T07:37:35;3.13;;;0.55;;
46399;SDS011;32104;50.838;4.388;2022-07-17T07:40:01;1.88;;;0.50;;
46399;SDS011;32104;50.838;4.388;2022-07-17T07:42:28;4.55;;;0.65;;
46399;SDS011;32104;50.838;4.388;2022-07-17T07:44:54;3.15;;;0.40;;
46399;SDS011;32104;50.838;4.388;2022-07-17T07:47:19;3.30;;;0.40;;
46399;SDS011;32104;50.838;4.388;2022-07-17T07:49:45;2.22;;;0.40;;
46399;SDS011;32104;50.838;4.388;2022-07-17T07:52:11;2.80;;;0.98;;
46399;SDS011;32104;50.838;4.388;2022-07-17T07:54:37;3.58;;;1.08;;
46399;SDS011;32104;50.838;4.388;2022-07-17T07:57:03;2.95;;;0.30;;
46399;SDS011;32104;50.838;4.388;2022-07-17T07:59:29;6.18;;;0.50;;
46399;SDS011;32104;50.838;4.388;2022-07-17T08:01:58;2.25;;;0.40;;
46399;SDS011;32104;50.838;4.388;2022-07-17T08:04:24;2.22;;;0.30;;
46399;SDS011;32104;50.838;4.388;2022-07-17T08:06:50;3.42;;;0.28;;
46399;SDS011;32104;50.838;4.388;2022-07-17T08:09:18;7.15;;;0.50;;
46399;SDS011;32104;50.838;4.388;2022-07-17T08:11:44;3.05;;;0.50;;
46399;SDS011;32104;50.838;4.388;2022-07-17T08:14:09;1.27;;;0.30;;
46399;SDS011;32104;50.838;4.388;2022-07-17T08:16:35;3.38;;;0.40;;
46399;SDS011;32104;50.838;4.388;2022-07-17T08:19:01;1.48;;;0.30;;
46399;SDS011;32104;50.838;4.388;2022-07-17T08:21:27;4.30;;;0.50;;
46399;SDS011;32104;50.838;4.388;2022-07-17T08:23:55;2.67;;;0.40;;
46399;SDS011;32104;50.838;4.388;2022-07-17T08:26:20;6.55;;;0.52;;
46399;SDS011;32104;50.838;4.388;2022-07-17T08:28:46;2.13;;;0.30;;
46399;SDS011;32104;50.838;4.388;2022-07-17T08:31:12;2.83;;;0.38;;
46399;SDS011;32104;50.838;4.388;2022-07-17T08:33:38;2.10;;;0.40;;
46399;SDS011;32104;50.838;4.388;2022-07-17T08:36:07;3.60;;;0.40;;
46399;SDS011;32104;50.838;4.388;2022-07-17T08:38:32;1.73;;;0.28;;
46399;SDS011;32104;50.838;4.388;2022-07-17T08:40:58;3.40;;;0.52;;
46399;SDS011;32104;50.838;4.388;2022-07-17T08:43:24;1.35;;;0.40;;
46399;SDS011;32104;50.838;4.388;2022-07-17T08:45:51;2.63;;;0.38;;
46399;SDS011;32104;50.838;4.388;2022-07-17T08:48:17;3.83;;;0.30;;
46399;SDS011;32104;50.838;4.388;2022-07-17T08:50:44;1.20;;;0.30;;
46399;SDS011;32104;50.838;4.388;2022-07-17T08:53:12;3.25;;;0.40;;
46399;SDS011;32104;50.838;4.388;2022-07-17T08:55:41;3.25;;;0.35;;
46399;SDS011;32104;50.838;4.388;2022-07-17T08:58:07;3.17;;;0.40;;
46399;SDS011;32104;50.838;4.388;2022-07-17T09:00:34;1.50;;;0.60;;
46399;SDS011;32104;50.838;4.388;2022-07-17T09:03:02;3.53;;;0.35;;
46399;SDS011;32104;50.838;4.388;2022-07-17T09:05:30;1.98;;;0.40;;
46399;SDS011;32104;50.838;4.388;2022-07-17T09:07:58;2.30;;;0.60;;
46399;SDS011;32104;50.838;4.388;2022-07-17T09:10:31;4.25;;;0.40;;
46399;SDS011;32104;50.838;4.388;2022-07-17T09:12:59;2.70;;;0.60;;
46399;SDS011;32104;50.838;4.388;2022-07-17T09:15:25;3.45;;;0.40;;
46399;SDS011;32104;50.838;4.388;2022-07-17T09:17:52;2.85;;;0.50;;
46399;SDS011;32104;50.838;4.388;2022-07-17T09:20:19;1.05;;;0.30;;
46399;SDS011;32104;50.838;4.388;2022-07-17T09:22:55;1.30;;;0.45;;
46399;SDS011;32104;50.838;4.388;2022-07-17T09:28:20;1.15;;;0.40;;
46399;SDS011;32104;50.838;4.388;2022-07-17T09:30:48;1.15;;;0.40;;
46399;SDS011;32104;50.838;4.388;2022-07-17T09:36:19;1.80;;;0.45;;
46399;SDS011;32104;50.838;4.388;2022-07-17T09:38:45;1.80;;;0.50;;
46399;SDS011;32104;50.838;4.388;2022-07-17T09:41:12;2.08;;;0.32;;
46399;SDS011;32104;50.838;4.388;2022-07-17T09:43:45;0.93;;;0.22;;
46399;SDS011;32104;50.838;4.388;2022-07-17T09:46:22;2.80;;;0.30;;
46399;SDS011;32104;50.838;4.388;2022-07-17T09:48:54;3.17;;;0.50;;
46399;SDS011;32104;50.838;4.388;2022-07-17T09:51:24;2.05;;;0.40;;
46399;SDS011;32104;50.838;4.388;2022-07-17T09:54:01;1.58;;;0.40;;
46399;SDS011;32104;50.838;4.388;2022-07-17T09:56:28;1.63;;;0.27;;
46399;SDS011;32104;50.838;4.388;2022-07-17T09:59:00;4.13;;;0.52;;
46399;SDS011;32104;50.838;4.388;2022-07-17T10:01:33;4.60;;;0.30;;
46399;SDS011;32104;50.838;4.388;2022-07-17T10:04:00;2.60;;;0.50;;
46399;SDS011;32104;50.838;4.388;2022-07-17T10:06:27;0.82;;;0.35;;
46399;SDS011;32104;50.838;4.388;2022-07-17T10:08:53;0.70;;;0.32;;
46399;SDS011;32104;50.838;4.388;2022-07-17T10:11:20;1.63;;;0.60;;
46399;SDS011;32104;50.838;4.388;2022-07-17T10:13:49;0.70;;;0.47;;
46399;SDS011;32104;50.838;4.388;2022-07-17T10:16:24;1.77;;;0.40;;
46399;SDS011;32104;50.838;4.388;2022-07-17T10:18:51;2.25;;;0.50;;
46399;SDS011;32104;50.838;4.388;2022-07-17T10:21:20;4.65;;;0.55;;
46399;SDS011;32104;50.838;4.388;2022-07-17T10:26:34;5.45;;;0.70;;
46399;SDS011;32104;50.838;4.388;2022-07-17T10:29:08;2.72;;;0.60;;
46399;SDS011;32104;50.838;4.388;2022-07-17T10:31:57;6.18;;;0.60;;
46399;SDS011;32104;50.838;4.388;2022-07-17T10:34:37;1.50;;;0.60;;
46399;SDS011;32104;50.838;4.388;2022-07-17T10:37:22;1.40;;;0.40;;
46399;SDS011;32104;50.838;4.388;2022-07-17T10:39:56;2.05;;;0.40;;
46399;SDS011;32104;50.838;4.388;2022-07-17T10:45:09;3.83;;;0.50;;
46399;SDS011;32104;50.838;4.388;2022-07-17T10:47:44;2.35;;;0.50;;
46399;SDS011;32104;50.838;4.388;2022-07-17T10:50:13;3.70;;;0.77;;
46399;SDS011;32104;50.838;4.388;2022-07-17T10:52:39;2.78;;;0.50;;
46399;SDS011;32104;50.838;4.388;2022-07-17T10:55:06;1.88;;;0.50;;
46399;SDS011;32104;50.838;4.388;2022-07-17T10:57:42;2.03;;;0.52;;
46399;SDS011;32104;50.838;4.388;2022-07-17T11:00:13;1.10;;;0.50;;
46399;SDS011;32104;50.838;4.388;2022-07-17T11:02:40;4.63;;;0.60;;
46399;SDS011;32104;50.838;4.388;2022-07-17T11:05:07;2.25;;;0.40;;
46399;SDS011;32104;50.838;4.388;2022-07-17T11:07:34;0.85;;;0.50;;
46399;SDS011;32104;50.838;4.388;2022-07-17T11:10:00;1.02;;;0.50;;
46399;SDS011;32104;50.838;4.388;2022-07-17T11:12:35;2.10;;;0.60;;
46399;SDS011;32104;50.838;4.388;2022-07-17T11:15:01;3.58;;;0.70;;
46399;SDS011;32104;50.838;4.388;2022-07-17T11:17:29;2.58;;;0.60;;
46399;SDS011;32104;50.838;4.388;2022-07-17T11:19:57;3.10;;;0.80;;
46399;SDS011;32104;50.838;4.388;2022-07-17T11:22:24;2.85;;;0.60;;
46399;SDS011;32104;50.838;4.388;2022-07-17T11:24:51;2.17;;;0.70;;
46399;SDS011;32104;50.838;4.388;2022-07-17T11:27:24;5.18;;;0.70;;
46399;SDS011;32104;50.838;4.388;2022-07-17T11:29:55;3.05;;;0.60;;
46399;SDS011;32104;50.838;4.388;2022-07-17T11:32:23;1.25;;;0.60;;
46399;SDS011;32104;50.838;4.388;2022-07-17T11:34:56;1.88;;;0.77;;
46399;SDS011;32104;50.838;4.388;2022-07-17T11:37:28;2.15;;;0.70;;
46399;SDS011;32104;50.838;4.388;2022-07-17T11:39:57;1.45;;;0.70;;
46399;SDS011;32104;50.838;4.388;2022-07-17T11:42:25;2.67;;;0.80;;
46399;SDS011;32104;50.838;4.388;2022-07-17T11:44:51;4.85;;;0.75;;
46399;SDS011;32104;50.838;4.388;2022-07-17T11:47:25;2.28;;;0.60;;
46399;SDS011;32104;50.838;4.388;2022-07-17T11:50:03;2.33;;;0.70;;
46399;SDS011;32104;50.838;4.388;2022-07-17T11:52:46;2.10;;;0.75;;
46399;SDS011;32104;50.838;4.388;2022-07-17T11:55:16;3.42;;;0.60;;
46399;SDS011;32104;50.838;4.388;2022-07-17T11:57:43;2.95;;;0.82;;
46399;SDS011;32104;50.838;4.388;2022-07-17T12:00:14;4.05;;;1.00;;
46399;SDS011;32104;50.838;4.388;2022-07-17T12:02:41;3.72;;;0.90;;
46399;SDS011;32104;50.838;4.388;2022-07-17T12:05:07;3.22;;;0.73;;
46399;SDS011;32104;50.838;4.388;2022-07-17T12:10:43;6.97;;;0.70;;
46399;SDS011;32104;50.838;4.388;2022-07-17T12:13:09;1.25;;;0.80;;
46399;SDS011;32104;50.838;4.388;2022-07-17T12:15:39;3.05;;;0.77;;
46399;SDS011;32104;50.838;4.388;2022-07-17T12:21:05;1.70;;;0.70;;
46399;SDS011;32104;50.838;4.388;2022-07-17T12:23:39;2.42;;;0.77;;
46399;SDS011;32104;50.838;4.388;2022-07-17T12:26:06;3.05;;;0.70;;
46399;SDS011;32104;50.838;4.388;2022-07-17T12:28:33;1.58;;;0.55;;
46399;SDS011;32104;50.838;4.388;2022-07-17T12:31:01;1.10;;;0.70;;
46399;SDS011;32104;50.838;4.388;2022-07-17T12:33:27;2.67;;;0.68;;
46399;SDS011;32104;50.838;4.388;2022-07-17T12:35:52;1.38;;;0.60;;
46399;SDS011;32104;50.838;4.388;2022-07-17T12:38:19;3.38;;;0.80;;
46399;SDS011;32104;50.838;4.388;2022-07-17T12:40:45;1.63;;;0.65;;
46399;SDS011;32104;50.838;4.388;2022-07-17T12:43:10;5.55;;;0.70;;
46399;SDS011;32104;50.838;4.388;2022-07-17T12:45:36;4.88;;;0.70;;
46399;SDS011;32104;50.838;4.388;2022-07-17T12:48:02;1.27;;;0.52;;
46399;SDS011;32104;50.838;4.388;2022-07-17T12:50:28;1.98;;;0.65;;
46399;SDS011;32104;50.838;4.388;2022-07-17T12:52:54;2.55;;;0.77;;
46399;SDS011;32104;50.838;4.388;2022-07-17T12:55:19;2.33;;;0.63;;
46399;SDS011;32104;50.838;4.388;2022-07-17T12:57:45;1.48;;;0.60;;
46399;SDS011;32104;50.838;4.388;2022-07-17T13:00:11;5.25;;;0.50;;
46399;SDS011;32104;50.838;4.388;2022-07-17T13:02:38;2.40;;;0.77;;
46399;SDS011;32104;50.838;4.388;2022-07-17T13:05:03;1.67;;;0.70;;
46399;SDS011;32104;50.838;4.388;2022-07-17T13:07:32;3.95;;;0.73;;
46399;SDS011;32104;50.838;4.388;2022-07-17T13:09:57;1.40;;;0.70;;
46399;SDS011;32104;50.838;4.388;2022-07-17T13:12:23;3.47;;;0.90;;
46399;SDS011;32104;50.838;4.388;2022-07-17T13:14:49;4.63;;;0.77;;
46399;SDS011;32104;50.838;4.388;2022-07-17T13:17:14;1.55;;;0.73;;
46399;SDS011;32104;50.838;4.388;2022-07-17T13:19:40;3.53;;;0.70;;
46399;SDS011;32104;50.838;4.388;2022-07-17T13:22:06;5.00;;;0.70;;
46399;SDS011;32104;50.838;4.388;2022-07-17T13:24:32;4.43;;;0.93;;
46399;SDS011;32104;50.838;4.388;2022-07-17T13:27:01;1.17;;;0.60;;
46399;SDS011;32104;50.838;4.388;2022-07-17T13:29:27;1.67;;;0.70;;
46399;SDS011;32104;50.838;4.388;2022-07-17T13:31:53;1.27;;;0.60;;
46399;SDS011;32104;50.838;4.388;2022-07-17T13:34:19;3.75;;;0.70;;
46399;SDS011;32104;50.838;4.388;2022-07-17T13:36:45;1.05;;;0.57;;
46399;SDS011;32104;50.838;4.388;2022-07-17T13:39:11;1.40;;;0.60;;
46399;SDS011;32104;50.838;4.388;2022-07-17T13:41:37;1.45;;;0.73;;
46399;SDS011;32104;50.838;4.388;2022-07-17T13:44:04;1.55;;;0.80;;
46399;SDS011;32104;50.838;4.388;2022-07-17T13:46:30;0.80;;;0.60;;
46399;SDS011;32104;50.838;4.388;2022-07-17T13:48:57;4.88;;;0.50;;
46399;SDS011;32104;50.838;4.388;2022-07-17T13:51:23;3.05;;;0.63;;
46399;SDS011;32104;50.838;4.388;2022-07-17T13:53:50;1.85;;;0.77;;
46399;SDS011;32104;50.838;4.388;2022-07-17T13:56:16;1.40;;;0.60;;
46399;SDS011;32104;50.838;4.388;2022-07-17T13:58:42;1.42;;;0.73;;
46399;SDS011;32104;50.838;4.388;2022-07-17T14:01:08;0.80;;;0.60;;
46399;SDS011;32104;50.838;4.388;2022-07-17T14:03:35;2.35;;;0.60;;
46399;SDS011;32104;50.838;4.388;2022-07-17T14:06:01;1.55;;;0.60;;
46399;SDS011;32104;50.838;4.388;2022-07-17T14:08:26;1.73;;;0.68;;
46399;SDS011;32104;50.838;4.388;2022-07-17T14:10:52;0.98;;;0.60;;
46399;SDS011;32104;50.838;4.388;2022-07-17T14:13:18;1.27;;;0.65;;
46399;SDS011;32104;50.838;4.388;2022-07-17T14:15:44;0.77;;;0.47;;
46399;SDS011;32104;50.838;4.388;2022-07-17T14:18:09;1.38;;;0.60;;
46399;SDS011;32104;50.838;4.388;2022-07-17T14:20:39;0.40;;;0.40;;
46399;SDS011;32104;50.838;4.388;2022-07-17T14:23:04;2.17;;;0.70;;
46399;SDS011;32104;50.838;4.388;2022-07-17T14:25:30;2.47;;;0.55;;
46399;SDS011;32104;50.838;4.388;2022-07-17T14:27:56;1.83;;;0.60;;
46399;SDS011;32104;50.838;4.388;2022-07-17T14:30:23;0.80;;;0.57;;
46399;SDS011;32104;50.838;4.388;2022-07-17T14:32:49;2.88;;;0.60;;
46399;SDS011;32104;50.838;4.388;2022-07-17T14:35:15;1.17;;;0.52;;
46399;SDS011;32104;50.838;4.388;2022-07-17T14:37:41;1.15;;;0.50;;
46399;SDS011;32104;50.838;4.388;2022-07-17T14:40:07;1.40;;;0.50;;
46399;SDS011;32104;50.838;4.388;2022-07-17T14:42:33;2.65;;;0.55;;
46399;SDS011;32104;50.838;4.388;2022-07-17T14:44:59;0.93;;;0.50;;
46399;SDS011;32104;50.838;4.388;2022-07-17T14:47:25;0.80;;;0.63;;
46399;SDS011;32104;50.838;4.388;2022-07-17T14:49:51;0.85;;;0.60;;
46399;SDS011;32104;50.838;4.388;2022-07-17T14:52:17;0.93;;;0.52;;
46399;SDS011;32104;50.838;4.388;2022-07-17T14:54:44;2.67;;;0.85;;
46399;SDS011;32104;50.838;4.388;2022-07-17T14:57:10;0.80;;;0.55;;
46399;SDS011;32104;50.838;4.388;2022-07-17T14:59:36;2.53;;;0.43;;
46399;SDS011;32104;50.838;4.388;2022-07-17T15:02:02;2.05;;;0.47;;
46399;SDS011;32104;50.838;4.388;2022-07-17T15:04:27;0.90;;;0.40;;
46399;SDS011;32104;50.838;4.388;2022-07-17T15:06:53;1.00;;;0.40;;
46399;SDS011;32104;50.838;4.388;2022-07-17T15:09:19;3.13;;;0.50;;
46399;SDS011;32104;50.838;4.388;2022-07-17T15:11:45;2.17;;;0.50;;
46399;SDS011;32104;50.838;4.388;2022-07-17T15:14:11;0.55;;;0.40;;
46399;SDS011;32104;50.838;4.388;2022-07-17T15:16:37;0.60;;;0.50;;
46399;SDS011;32104;50.838;4.388;2022-07-17T15:19:03;0.40;;;0.40;;